sensor_id;sensor_type;location;lat;lon;timestamp;pressure;altitude;pressure_sealevel;temperature;humidity
70758;BME280;59316;52.964;7.102;2022-09-09T00:03:21;100775.38;;;10.89;nan
70758;BME280;59316;52.964;7.102;2022-09-09T00:08:45;100786.63;;;10.78;nan
70758;BME280;59316;52.964;7.102;2022-09-09T00:13:55;100774.34;;;10.91;nan
70758;BME280;59316;52.964;7.102;2022-09-09T00:24:23;100759.66;;;10.76;nan
70758;BME280;59316;52.964;7.102;2022-09-09T00:34:52;100758.81;;;10.75;nan
70758;BME280;59316;52.964;7.102;2022-09-09T00:51:00;100747.94;;;10.56;nan
70758;BME280;59316;52.964;7.102;2022-09-09T01:01:11;100740.50;;;10.49;nan
70758;BME280;59316;52.964;7.102;2022-09-09T01:06:30;100756.03;;;10.40;nan
70758;BME280;59316;52.964;7.102;2022-09-09T01:16:48;100743.44;;;10.32;nan
70758;BME280;59316;52.964;7.102;2022-09-09T01:27:37;100752.78;;;10.36;nan
70758;BME280;59316;52.964;7.102;2022-09-09T01:32:41;100759.06;;;10.46;nan
70758;BME280;59316;52.964;7.102;2022-09-09T01:37:45;100754.84;;;10.70;nan
70758;BME280;59316;52.964;7.102;2022-09-09T01:42:47;100739.31;;;10.79;nan
70758;BME280;59316;52.964;7.102;2022-09-09T01:47:52;100750.41;;;10.96;nan
70758;BME280;59316;52.964;7.102;2022-09-09T01:53:03;100738.38;;;11.05;nan
70758;BME280;59316;52.964;7.102;2022-09-09T02:03:31;100738.94;;;11.45;nan
70758;BME280;59316;52.964;7.102;2022-09-09T02:08:47;100760.88;;;11.57;nan
70758;BME280;59316;52.964;7.102;2022-09-09T02:13:54;100731.78;;;11.72;nan
70758;BME280;59316;52.964;7.102;2022-09-09T02:24:11;100738.38;;;11.89;nan
70758;BME280;59316;52.964;7.102;2022-09-09T02:29:28;100738.69;;;12.08;nan
70758;BME280;59316;52.964;7.102;2022-09-09T02:34:36;100731.78;;;12.07;nan
70758;BME280;59316;52.964;7.102;2022-09-09T02:39:42;100738.09;;;12.05;nan
70758;BME280;59316;52.964;7.102;2022-09-09T02:44:48;100735.81;;;12.00;nan
70758;BME280;59316;52.964;7.102;2022-09-09T02:55:05;100741.06;;;12.00;nan
70758;BME280;59316;52.964;7.102;2022-09-09T03:00:10;100738.69;;;12.08;nan
70758;BME280;59316;52.964;7.102;2022-09-09T03:05:14;100741.09;;;12.11;nan
70758;BME280;59316;52.964;7.102;2022-09-09T03:10:17;100750.28;;;12.17;nan
70758;BME280;59316;52.964;7.102;2022-09-09T03:15:19;100743.13;;;12.19;nan
70758;BME280;59316;52.964;7.102;2022-09-09T03:20:23;100745.66;;;12.21;nan
70758;BME280;59316;52.964;7.102;2022-09-09T03:25:26;100743.97;;;12.31;nan
70758;BME280;59316;52.964;7.102;2022-09-09T03:30:29;100747.81;;;12.27;nan
70758;BME280;59316;52.964;7.102;2022-09-09T03:35:33;100754.28;;;12.34;nan
70758;BME280;59316;52.964;7.102;2022-09-09T03:45:38;100758.94;;;12.31;nan
70758;BME280;59316;52.964;7.102;2022-09-09T03:50:46;100747.56;;;12.30;nan
70758;BME280;59316;52.964;7.102;2022-09-09T03:55:50;100743.28;;;12.29;nan
70758;BME280;59316;52.964;7.102;2022-09-09T04:00:58;100746.13;;;12.26;nan
70758;BME280;59316;52.964;7.102;2022-09-09T04:06:03;100750.06;;;12.20;nan
70758;BME280;59316;52.964;7.102;2022-09-09T04:11:07;100761.78;;;12.16;nan
70758;BME280;59316;52.964;7.102;2022-09-09T04:16:12;100753.19;;;12.14;nan
70758;BME280;59316;52.964;7.102;2022-09-09T04:21:16;100767.50;;;12.10;nan
70758;BME280;59316;52.964;7.102;2022-09-09T04:26:18;100764.16;;;12.08;nan
70758;BME280;59316;52.964;7.102;2022-09-09T04:31:21;100764.97;;;12.08;nan
70758;BME280;59316;52.964;7.102;2022-09-09T04:36:27;100767.06;;;12.16;nan
70758;BME280;59316;52.964;7.102;2022-09-09T04:41:34;100759.50;;;12.11;nan
70758;BME280;59316;52.964;7.102;2022-09-09T04:46:37;100766.31;;;12.14;nan
70758;BME280;59316;52.964;7.102;2022-09-09T04:56:41;100763.09;;;12.10;nan
70758;BME280;59316;52.964;7.102;2022-09-09T05:01:45;100761.41;;;12.09;nan
70758;BME280;59316;52.964;7.102;2022-09-09T05:06:48;100759.72;;;12.08;nan
70758;BME280;59316;52.964;7.102;2022-09-09T05:11:50;100765.38;;;12.15;nan
70758;BME280;59316;52.964;7.102;2022-09-09T05:22:11;100757.97;;;12.20;nan
70758;BME280;59316;52.964;7.102;2022-09-09T05:27:18;100762.38;;;12.20;nan
70758;BME280;59316;52.964;7.102;2022-09-09T05:32:23;100762.97;;;12.23;nan
70758;BME280;59316;52.964;7.102;2022-09-09T05:37:26;100758.56;;;12.24;nan
70758;BME280;59316;52.964;7.102;2022-09-09T05:42:30;100761.09;;;12.25;nan
70758;BME280;59316;52.964;7.102;2022-09-09T05:47:34;100767.66;;;12.31;nan
70758;BME280;59316;52.964;7.102;2022-09-09T05:57:40;100767.91;;;12.39;nan
70758;BME280;59316;52.964;7.102;2022-09-09T06:02:50;100768.03;;;12.49;nan
70758;BME280;59316;52.964;7.102;2022-09-09T06:17:57;100760.50;;;12.67;nan
70758;BME280;59316;52.964;7.102;2022-09-09T06:23:00;100771.28;;;12.87;nan
70758;BME280;59316;52.964;7.102;2022-09-09T06:28:02;100780.09;;;13.08;nan
70758;BME280;59316;52.964;7.102;2022-09-09T06:33:05;100772.84;;;13.33;nan
70758;BME280;59316;52.964;7.102;2022-09-09T06:43:10;100783.00;;;13.82;nan
70758;BME280;59316;52.964;7.102;2022-09-09T06:53:22;100775.75;;;14.68;nan
70758;BME280;59316;52.964;7.102;2022-09-09T06:58:24;100772.66;;;14.63;nan
70758;BME280;59316;52.964;7.102;2022-09-09T07:03:29;100782.06;;;14.77;nan
70758;BME280;59316;52.964;7.102;2022-09-09T07:08:32;100766.75;;;14.81;nan
70758;BME280;59316;52.964;7.102;2022-09-09T07:13:35;100766.47;;;14.74;nan
70758;BME280;59316;52.964;7.102;2022-09-09T07:18:39;100759.66;;;14.71;nan
70758;BME280;59316;52.964;7.102;2022-09-09T07:23:42;100772.78;;;14.62;nan
70758;BME280;59316;52.964;7.102;2022-09-09T07:28:46;100781.63;;;14.72;nan
70758;BME280;59316;52.964;7.102;2022-09-09T07:33:48;100776.88;;;14.75;nan
70758;BME280;59316;52.964;7.102;2022-09-09T07:39:00;100777.69;;;15.07;nan
70758;BME280;59316;52.964;7.102;2022-09-09T07:44:06;100787.19;;;15.29;nan
70758;BME280;59316;52.964;7.102;2022-09-09T07:49:11;100766.34;;;15.55;nan
70758;BME280;59316;52.964;7.102;2022-09-09T07:54:16;100772.47;;;15.95;nan
70758;BME280;59316;52.964;7.102;2022-09-09T07:59:20;100765.53;;;17.07;nan
70758;BME280;59316;52.964;7.102;2022-09-09T08:04:25;100768.06;;;17.45;nan
70758;BME280;59316;52.964;7.102;2022-09-09T08:09:29;100756.84;;;17.15;nan
70758;BME280;59316;52.964;7.102;2022-09-09T08:14:54;100749.63;;;17.79;nan
70758;BME280;59316;52.964;7.102;2022-09-09T08:19:59;100757.03;;;18.38;nan
70758;BME280;59316;52.964;7.102;2022-09-09T08:25:03;100745.59;;;18.46;nan
70758;BME280;59316;52.964;7.102;2022-09-09T08:30:07;100736.47;;;18.48;nan
70758;BME280;59316;52.964;7.102;2022-09-09T08:35:10;100740.16;;;18.21;nan
70758;BME280;59316;52.964;7.102;2022-09-09T08:40:22;100744.22;;;19.27;nan
70758;BME280;59316;52.964;7.102;2022-09-09T08:45:29;100733.94;;;20.07;nan
70758;BME280;59316;52.964;7.102;2022-09-09T08:50:37;100731.91;;;20.17;nan
70758;BME280;59316;52.964;7.102;2022-09-09T08:55:51;100729.09;;;20.10;nan
70758;BME280;59316;52.964;7.102;2022-09-09T09:06:21;100725.75;;;20.08;nan
70758;BME280;59316;52.964;7.102;2022-09-09T09:11:26;100736.56;;;20.23;nan
70758;BME280;59316;52.964;7.102;2022-09-09T09:16:33;100743.75;;;21.49;nan
70758;BME280;59316;52.964;7.102;2022-09-09T09:27:12;100767.06;;;19.88;nan
70758;BME280;59316;52.964;7.102;2022-09-09T09:32:20;100772.13;;;19.15;nan
70758;BME280;59316;52.964;7.102;2022-09-09T09:37:30;100765.69;;;18.83;nan
70758;BME280;59316;52.964;7.102;2022-09-09T09:42:34;100766.63;;;19.08;nan
70758;BME280;59316;52.964;7.102;2022-09-09T09:47:36;100769.84;;;19.28;nan
70758;BME280;59316;52.964;7.102;2022-09-09T09:53:06;100770.56;;;19.96;nan
70758;BME280;59316;52.964;7.102;2022-09-09T09:58:19;100767.03;;;19.55;nan
70758;BME280;59316;52.964;7.102;2022-09-09T10:08:34;100760.06;;;21.54;nan
70758;BME280;59316;52.964;7.102;2022-09-09T10:19:14;100740.53;;;22.96;nan
70758;BME280;59316;52.964;7.102;2022-09-09T10:34:56;100741.59;;;23.60;nan
70758;BME280;59316;52.964;7.102;2022-09-09T10:51:18;100747.28;;;23.50;nan
70758;BME280;59316;52.964;7.102;2022-09-09T10:56:24;100752.63;;;22.92;nan
70758;BME280;59316;52.964;7.102;2022-09-09T11:06:39;100751.34;;;20.82;nan
70758;BME280;59316;52.964;7.102;2022-09-09T11:11:52;100741.63;;;22.50;nan
70758;BME280;59316;52.964;7.102;2022-09-09T11:17:02;100727.00;;;23.63;nan
70758;BME280;59316;52.964;7.102;2022-09-09T11:38:25;100735.84;;;21.79;nan
70758;BME280;59316;52.964;7.102;2022-09-09T11:43:31;100736.56;;;21.49;nan
70758;BME280;59316;52.964;7.102;2022-09-09T11:53:53;100734.47;;;22.87;nan
70758;BME280;59316;52.964;7.102;2022-09-09T12:04:27;100724.47;;;23.54;nan
70758;BME280;59316;52.964;7.102;2022-09-09T12:14:54;100729.03;;;23.61;nan
70758;BME280;59316;52.964;7.102;2022-09-09T12:31:05;100716.19;;;23.49;nan
70758;BME280;59316;52.964;7.102;2022-09-09T12:36:15;100712.38;;;23.00;nan
70758;BME280;59316;52.964;7.102;2022-09-09T12:41:25;100709.06;;;24.20;nan
70758;BME280;59316;52.964;7.102;2022-09-09T12:53:21;100692.06;;;24.96;nan
70758;BME280;59316;52.964;7.102;2022-09-09T12:58:28;100693.69;;;24.91;nan
70758;BME280;59316;52.964;7.102;2022-09-09T13:03:33;100689.72;;;23.61;nan
70758;BME280;59316;52.964;7.102;2022-09-09T13:08:36;100685.22;;;24.38;nan
70758;BME280;59316;52.964;7.102;2022-09-09T13:13:40;100692.22;;;23.41;nan
70758;BME280;59316;52.964;7.102;2022-09-09T13:18:43;100689.84;;;21.91;nan
70758;BME280;59316;52.964;7.102;2022-09-09T13:23:50;100697.28;;;20.97;nan
70758;BME280;59316;52.964;7.102;2022-09-09T13:28:53;100754.97;;;18.93;nan
70758;BME280;59316;52.964;7.102;2022-09-09T13:33:56;100760.16;;;17.89;nan
70758;BME280;59316;52.964;7.102;2022-09-09T13:39:00;100740.25;;;17.49;nan
70758;BME280;59316;52.964;7.102;2022-09-09T13:44:04;100721.44;;;18.31;nan
70758;BME280;59316;52.964;7.102;2022-09-09T13:54:10;100717.34;;;18.37;nan
70758;BME280;59316;52.964;7.102;2022-09-09T13:59:19;100722.44;;;18.30;nan
70758;BME280;59316;52.964;7.102;2022-09-09T14:04:21;100730.38;;;18.22;nan
70758;BME280;59316;52.964;7.102;2022-09-09T14:09:24;100738.13;;;18.15;nan
70758;BME280;59316;52.964;7.102;2022-09-09T14:14:26;100733.28;;;18.37;nan
70758;BME280;59316;52.964;7.102;2022-09-09T14:19:29;100726.16;;;18.80;nan
70758;BME280;59316;52.964;7.102;2022-09-09T14:24:31;100725.94;;;19.24;nan
70758;BME280;59316;52.964;7.102;2022-09-09T14:29:34;100720.97;;;19.46;nan
70758;BME280;59316;52.964;7.102;2022-09-09T14:34:36;100717.81;;;19.51;nan
70758;BME280;59316;52.964;7.102;2022-09-09T14:39:39;100710.47;;;19.53;nan
70758;BME280;59316;52.964;7.102;2022-09-09T14:44:41;100715.44;;;20.22;nan
70758;BME280;59316;52.964;7.102;2022-09-09T14:49:44;100711.47;;;19.76;nan
70758;BME280;59316;52.964;7.102;2022-09-09T14:54:48;100718.63;;;19.35;nan
70758;BME280;59316;52.964;7.102;2022-09-09T14:59:50;100728.75;;;18.72;nan
70758;BME280;59316;52.964;7.102;2022-09-09T15:04:53;100723.16;;;17.88;nan
70758;BME280;59316;52.964;7.102;2022-09-09T15:09:55;100726.09;;;17.40;nan
70758;BME280;59316;52.964;7.102;2022-09-09T15:14:58;100726.78;;;17.24;nan
70758;BME280;59316;52.964;7.102;2022-09-09T15:20:04;100731.63;;;17.29;nan
70758;BME280;59316;52.964;7.102;2022-09-09T15:25:07;100721.91;;;17.56;nan
70758;BME280;59316;52.964;7.102;2022-09-09T15:30:10;100712.06;;;18.88;nan
70758;BME280;59316;52.964;7.102;2022-09-09T15:35:14;100706.31;;;19.50;nan
70758;BME280;59316;52.964;7.102;2022-09-09T15:40:17;100702.00;;;19.74;nan
70758;BME280;59316;52.964;7.102;2022-09-09T15:45:19;100706.38;;;21.02;nan
70758;BME280;59316;52.964;7.102;2022-09-09T15:50:21;100694.41;;;21.68;nan
70758;BME280;59316;52.964;7.102;2022-09-09T15:55:24;100693.28;;;21.39;nan
70758;BME280;59316;52.964;7.102;2022-09-09T16:00:26;100694.06;;;20.30;nan
70758;BME280;59316;52.964;7.102;2022-09-09T16:05:29;100708.19;;;19.41;nan
70758;BME280;59316;52.964;7.102;2022-09-09T16:10:31;100708.50;;;19.46;nan
70758;BME280;59316;52.964;7.102;2022-09-09T16:15:34;100702.69;;;19.84;nan
70758;BME280;59316;52.964;7.102;2022-09-09T16:20:36;100704.09;;;20.20;nan
70758;BME280;59316;52.964;7.102;2022-09-09T16:25:38;100695.16;;;20.04;nan
70758;BME280;59316;52.964;7.102;2022-09-09T16:30:41;100699.19;;;19.67;nan
70758;BME280;59316;52.964;7.102;2022-09-09T16:35:44;100702.34;;;19.29;nan
70758;BME280;59316;52.964;7.102;2022-09-09T16:40:46;100714.19;;;18.84;nan
70758;BME280;59316;52.964;7.102;2022-09-09T16:45:48;100723.13;;;18.32;nan
70758;BME280;59316;52.964;7.102;2022-09-09T16:50:51;100724.28;;;17.85;nan
70758;BME280;59316;52.964;7.102;2022-09-09T16:55:53;100733.59;;;17.45;nan
70758;BME280;59316;52.964;7.102;2022-09-09T17:01:00;100739.56;;;17.11;nan
70758;BME280;59316;52.964;7.102;2022-09-09T17:06:03;100755.88;;;16.88;nan
70758;BME280;59316;52.964;7.102;2022-09-09T17:11:12;100756.06;;;16.77;nan
70758;BME280;59316;52.964;7.102;2022-09-09T17:16:17;100763.47;;;16.73;nan
70758;BME280;59316;52.964;7.102;2022-09-09T17:21:22;100779.13;;;16.66;nan
70758;BME280;59316;52.964;7.102;2022-09-09T17:26:28;100776.50;;;16.57;nan
70758;BME280;59316;52.964;7.102;2022-09-09T17:31:31;100772.91;;;16.48;nan
70758;BME280;59316;52.964;7.102;2022-09-09T17:36:34;100777.69;;;16.34;nan
70758;BME280;59316;52.964;7.102;2022-09-09T17:41:37;100766.56;;;16.21;nan
70758;BME280;59316;52.964;7.102;2022-09-09T17:46:41;100784.28;;;16.11;nan
70758;BME280;59316;52.964;7.102;2022-09-09T17:51:45;100784.44;;;15.99;nan
70758;BME280;59316;52.964;7.102;2022-09-09T17:56:47;100794.34;;;15.87;nan
70758;BME280;59316;52.964;7.102;2022-09-09T18:01:50;100785.56;;;15.77;nan
70758;BME280;59316;52.964;7.102;2022-09-09T18:06:53;100792.25;;;15.62;nan
70758;BME280;59316;52.964;7.102;2022-09-09T18:11:57;100793.72;;;15.45;nan
70758;BME280;59316;52.964;7.102;2022-09-09T18:17:01;100794.56;;;15.26;nan
70758;BME280;59316;52.964;7.102;2022-09-09T18:22:04;100799.41;;;15.11;nan
70758;BME280;59316;52.964;7.102;2022-09-09T18:27:07;100804.50;;;15.02;nan
70758;BME280;59316;52.964;7.102;2022-09-09T18:32:09;100805.59;;;15.00;nan
70758;BME280;59316;52.964;7.102;2022-09-09T18:37:12;100801.03;;;15.02;nan
70758;BME280;59316;52.964;7.102;2022-09-09T18:42:15;100806.75;;;15.07;nan
70758;BME280;59316;52.964;7.102;2022-09-09T18:47:17;100807.31;;;15.11;nan
70758;BME280;59316;52.964;7.102;2022-09-09T18:52:19;100811.22;;;15.06;nan
70758;BME280;59316;52.964;7.102;2022-09-09T18:57:22;100818.00;;;14.99;nan
70758;BME280;59316;52.964;7.102;2022-09-09T19:02:24;100809.78;;;14.93;nan
70758;BME280;59316;52.964;7.102;2022-09-09T19:07:27;100815.16;;;14.91;nan
70758;BME280;59316;52.964;7.102;2022-09-09T19:12:29;100808.81;;;14.94;nan
70758;BME280;59316;52.964;7.102;2022-09-09T19:17:32;100817.56;;;14.94;nan
70758;BME280;59316;52.964;7.102;2022-09-09T19:22:34;100822.69;;;14.96;nan
70758;BME280;59316;52.964;7.102;2022-09-09T19:27:37;100826.19;;;14.96;nan
70758;BME280;59316;52.964;7.102;2022-09-09T19:32:40;100831.47;;;14.96;nan
70758;BME280;59316;52.964;7.102;2022-09-09T19:37:58;100840.38;;;14.95;nan
70758;BME280;59316;52.964;7.102;2022-09-09T19:43:00;100832.97;;;14.89;nan
70758;BME280;59316;52.964;7.102;2022-09-09T19:48:03;100839.75;;;14.82;nan
70758;BME280;59316;52.964;7.102;2022-09-09T19:53:05;100834.44;;;14.72;nan
70758;BME280;59316;52.964;7.102;2022-09-09T19:58:07;100840.00;;;14.57;nan
70758;BME280;59316;52.964;7.102;2022-09-09T20:03:10;100843.25;;;14.40;nan
70758;BME280;59316;52.964;7.102;2022-09-09T20:08:20;100846.34;;;14.24;nan
70758;BME280;59316;52.964;7.102;2022-09-09T20:13:23;100852.75;;;14.10;nan
70758;BME280;59316;52.964;7.102;2022-09-09T20:18:27;100859.00;;;14.09;nan
70758;BME280;59316;52.964;7.102;2022-09-09T20:23:30;100861.41;;;14.12;nan
70758;BME280;59316;52.964;7.102;2022-09-09T20:28:34;100871.09;;;14.12;nan
70758;BME280;59316;52.964;7.102;2022-09-09T20:33:37;100865.00;;;14.11;nan
70758;BME280;59316;52.964;7.102;2022-09-09T20:38:44;100863.91;;;14.14;nan
70758;BME280;59316;52.964;7.102;2022-09-09T20:43:51;100868.34;;;14.13;nan
70758;BME280;59316;52.964;7.102;2022-09-09T20:48:54;100856.50;;;14.07;nan
70758;BME280;59316;52.964;7.102;2022-09-09T20:54:04;100865.16;;;13.98;nan
70758;BME280;59316;52.964;7.102;2022-09-09T20:59:10;100855.75;;;13.84;nan
70758;BME280;59316;52.964;7.102;2022-09-09T21:04:15;100858.22;;;13.65;nan
70758;BME280;59316;52.964;7.102;2022-09-09T21:09:19;100862.19;;;13.48;nan
70758;BME280;59316;52.964;7.102;2022-09-09T21:14:21;100867.81;;;13.32;nan
70758;BME280;59316;52.964;7.102;2022-09-09T21:19:24;100866.63;;;13.02;nan
70758;BME280;59316;52.964;7.102;2022-09-09T21:24:26;100873.09;;;12.86;nan
70758;BME280;59316;52.964;7.102;2022-09-09T21:29:28;100878.13;;;12.78;nan
70758;BME280;59316;52.964;7.102;2022-09-09T21:34:33;100875.50;;;12.78;nan
70758;BME280;59316;52.964;7.102;2022-09-09T21:39:36;100894.22;;;12.62;nan
70758;BME280;59316;52.964;7.102;2022-09-09T21:44:38;100889.34;;;12.57;nan
70758;BME280;59316;52.964;7.102;2022-09-09T21:49:41;100888.81;;;12.41;nan
70758;BME280;59316;52.964;7.102;2022-09-09T21:54:43;100891.28;;;12.31;nan
70758;BME280;59316;52.964;7.102;2022-09-09T21:59:46;100892.56;;;12.14;nan
70758;BME280;59316;52.964;7.102;2022-09-09T22:04:48;100892.19;;;12.07;nan
70758;BME280;59316;52.964;7.102;2022-09-09T22:09:51;100892.25;;;12.06;nan
70758;BME280;59316;52.964;7.102;2022-09-09T22:14:53;100893.25;;;12.05;nan
70758;BME280;59316;52.964;7.102;2022-09-09T22:19:56;100901.88;;;11.94;nan
70758;BME280;59316;52.964;7.102;2022-09-09T22:24:58;100899.94;;;12.09;nan
70758;BME280;59316;52.964;7.102;2022-09-09T22:30:01;100902.13;;;12.15;nan
70758;BME280;59316;52.964;7.102;2022-09-09T22:35:03;100911.09;;;12.12;nan
70758;BME280;59316;52.964;7.102;2022-09-09T22:40:06;100903.53;;;12.08;nan
70758;BME280;59316;52.964;7.102;2022-09-09T22:45:09;100915.41;;;12.13;nan
70758;BME280;59316;52.964;7.102;2022-09-09T22:50:12;100908.53;;;12.00;nan
70758;BME280;59316;52.964;7.102;2022-09-09T22:55:14;100911.34;;;11.96;nan
70758;BME280;59316;52.964;7.102;2022-09-09T23:00:16;100912.44;;;11.81;nan
70758;BME280;59316;52.964;7.102;2022-09-09T23:05:19;100916.91;;;11.68;nan
70758;BME280;59316;52.964;7.102;2022-09-09T23:10:21;100920.09;;;11.60;nan
70758;BME280;59316;52.964;7.102;2022-09-09T23:15:24;100920.28;;;11.57;nan
70758;BME280;59316;52.964;7.102;2022-09-09T23:20:26;100924.63;;;11.82;nan
70758;BME280;59316;52.964;7.102;2022-09-09T23:25:29;100923.69;;;11.83;nan
70758;BME280;59316;52.964;7.102;2022-09-09T23:30:31;100926.44;;;11.69;nan
70758;BME280;59316;52.964;7.102;2022-09-09T23:35:34;100930.69;;;11.58;nan
70758;BME280;59316;52.964;7.102;2022-09-09T23:40:36;100932.59;;;11.56;nan
70758;BME280;59316;52.964;7.102;2022-09-09T23:45:39;100934.78;;;11.62;nan
70758;BME280;59316;52.964;7.102;2022-09-09T23:50:42;100922.09;;;11.56;nan
70758;BME280;59316;52.964;7.102;2022-09-09T23:55:45;100920.69;;;11.63;nan
